CYAW/YAW METAR and TAF weather

Enter ICAO airport designator
Station Type Date Time Source
CYAW METAR 2021/03/05 20:33 UTC NOAA

CYAW 052033Z 25011G16KT 15SM BKN037 M04/M12 A2945 RMK SC6 DA-1589FT LAST OBS/NXT 081000 UTC SLP975


Station Type Date Time Source
CYAW Decoded METAR 2021/03/05 20:33 UTC NOAA

Shearwater, N. S., Canada (CYAW) 44-38N 063-30W 51M
Mar 05, 2021 - 03:33 PM EST / 2021.03.05 2033 UTC
Wind: from the WSW (250 degrees) at 13 MPH (11 KT) gusting to 18 MPH (16 KT):0
Visibility: 15 mile(s):0
Sky conditions: mostly cloudy
Temperature: 24 F (-4 C)
Windchill: 12 F (-11 C):1
Dew Point: 10 F (-12 C)
Relative Humidity: 53%
Pressure (altimeter): 29.45 in. Hg (997 hPa)
ob: CYAW 052033Z 25011G16KT 15SM BKN037 M04/M12 A2945 RMK SC6 DA-1589FT LAST OBS/NXT 081000 UTC SLP975
cycle: 20

Station Type Date Time Source
CYAW TAF 2021/03/05 18:40 UTC NOAA

TAF
AMD CYAW 052037Z 0518/0606 FCST CNCLD DUE END OF FLYING PROGRAM
RMK NXT FCST WILL BE ISSUED AT 081115Z

Example: see airport list